Погода Бостандыкна неделю

Южно-Казахстанская область, Казахстан

23 - 29 июля
  • 23июля
    Сегодня
    +21°
    +35°
    Небольшая облачность
    ВремяПогодаТемператураВлажностьДавлениеВетер, м/сВероятность осадков
    02:00Ясно и безоблачно+23°C48 %707 мм1.6 м/с2 %
    05:00Ясно и безоблачно+22°C46 %707 мм1.3 м/с2 %
    08:00Ясно и безоблачно+27°C41 %708 мм1.1 м/с5 %
    11:00Практически безоблачно+33°C29 %708 мм1.8 м/с2 %
    14:00Небольшая облачность+35°C25 %708 мм1.7 м/с6 %
    17:00Ясно и безоблачно+34°C33 %708 мм2.4 м/с7 %
    20:00Ясно и безоблачно+31°C38 %707 мм0.9 м/с2 %
    23:00Ясно и безоблачно+25°C49 %706 мм1.5 м/с2 %
  • 24июля
    Среда
    +22°
    +36°
    Ясно и безоблачно
    ВремяПогодаТемператураВлажностьДавлениеВетер, м/сВероятность осадков
    02:00Ясно и безоблачно+23°C54 %706 мм1.6 м/с2 %
    05:00Ясно и безоблачно+22°C57 %706 мм1.2 м/с2 %
    08:00Ясно и безоблачно+28°C47 %707 мм1.1 м/с2 %
    11:00Ясно и безоблачно+34°C22 %707 мм1.7 м/с2 %
    14:00Ясно и безоблачно+36°C20 %706 мм2.0 м/с2 %
    17:00Ясно и безоблачно+36°C23 %706 мм2.2 м/с2 %
    20:00Ясно и безоблачно+31°C36 %705 мм1.1 м/с2 %
    23:00Ясно и безоблачно+26°C34 %704 мм1.3 м/с2 %
  • 25июля
    Четверг
    +24°
    +38°
    Ясно и безоблачно
    ВремяПогодаТемператураВлажностьДавлениеВетер, м/сВероятность осадков
    02:00Ясно и безоблачно+24°C44 %704 мм1.4 м/с2 %
    05:00Ясно и безоблачно+22°C48 %704 мм1.2 м/с2 %
    08:00Ясно и безоблачно+29°C42 %705 мм1.3 м/с2 %
    11:00Ясно и безоблачно+35°C20 %706 мм1.4 м/с2 %
    14:00Ясно и безоблачно+37°C17 %706 мм1.8 м/с2 %
    17:00Ясно и безоблачно+37°C18 %705 мм1.7 м/с2 %
    20:00Ясно и безоблачно+32°C27 %705 мм0.7 м/с2 %
    23:00Ясно и безоблачно+27°C29 %705 мм1.5 м/с2 %
  • 26июля
    Пятница
    +23°
    +40°
    Ясно и безоблачно
    ВремяПогодаТемператураВлажностьДавлениеВетер, м/сВероятность осадков
    02:00Ясно и безоблачно+26°C37 %704 мм1.8 м/с2 %
    05:00Ясно и безоблачно+25°C35 %705 мм1.6 м/с2 %
    08:00Ясно и безоблачно+31°C36 %707 мм1.9 м/с2 %
    11:00Ясно и безоблачно+35°C17 %708 мм1.4 м/с2 %
    14:00Ясно и безоблачно+39°C15 %708 мм2.1 м/с2 %
    17:00Облачно с прояснениями+38°C19 %707 мм2.6 м/с2 %
    20:00Ясно и безоблачно+33°C23 %707 мм2.0 м/с2 %
    23:00Ясно и безоблачно+26°C32 %707 мм0.6 м/с2 %
  • 27июля
    Суббота
    +23°
    +39°
    Ясно и безоблачно
    ВремяПогодаТемператураВлажностьДавлениеВетер, м/сВероятность осадков
    02:00Ясно и безоблачно+24°C37 %706 мм1.2 м/с2 %
    05:00Ясно и безоблачно+23°C37 %707 мм1.0 м/с2 %
    08:00Ясно и безоблачно+29°C36 %709 мм0.9 м/с2 %
    11:00Ясно и безоблачно+34°C25 %709 мм1.0 м/с2 %
    14:00Ясно и безоблачно+38°C20 %709 мм1.8 м/с2 %
    17:00Ясно и безоблачно+38°C20 %708 мм2.0 м/с2 %
    20:00Ясно и безоблачно+32°C32 %708 мм1.2 м/с2 %
    23:00Ясно и безоблачно+26°C39 %708 мм1.1 м/с2 %
Мы используем cookies
Соглашаюсь